Time,TemperatureF,DewpointF,PressureIn,WindDirection,WindDirectionDegrees,WindSpeedMPH,WindSpeedGustMPH,Humidity,HourlyPrecipIn,Conditions,Clouds,dailyrainin,SoftwareType,DateUTC
2013-08-30 00:01:00,73.2,48.1,30.20,East,80,0.0,0.0,41,0.00,,,0.00,vanprod-2.5-rc3,2013-08-30 06:01:00,
2013-08-30 00:06:00,73.2,48.1,30.20,East,81,0.0,0.0,41,0.00,,,0.00,vanprod-2.5-rc3,2013-08-30 06:06:00,
2013-08-30 00:11:00,73.0,47.9,30.20,ENE,66,0.0,0.0,41,0.00,,,0.00,vanprod-2.5-rc3,2013-08-30 06:11:00,
2013-08-30 00:16:00,72.8,48.4,30.20,ENE,65,0.0,0.0,42,0.00,,,0.00,vanprod-2.5-rc3,2013-08-30 06:16:00,
2013-08-30 00:21:00,72.6,48.2,30.20,ENE,70,0.0,0.0,42,0.00,,,0.00,vanprod-2.5-rc3,2013-08-30 06:21:00,
2013-08-30 00:26:00,72.5,48.1,30.20,ENE,68,2.0,3.0,42,0.00,,,0.00,vanprod-2.5-rc3,2013-08-30 06:26:00,
2013-08-30 00:31:00,72.5,48.1,30.20,ENE,69,1.0,0.0,42,0.00,,,0.00,vanprod-2.5-rc3,2013-08-30 06:31:00,
2013-08-30 00:36:00,72.4,48.7,30.20,ENE,69,3.0,5.0,43,0.00,,,0.00,vanprod-2.5-rc3,2013-08-30 06:36:00,
2013-08-30 00:41:00,72.4,49.3,30.20,ENE,58,1.0,0.0,44,0.00,,,0.00,vanprod-2.5-rc3,2013-08-30 06:41:00,
2013-08-30 00:46:00,72.3,49.2,30.20,ENE,63,0.0,0.0,44,0.00,,,0.00,vanprod-2.5-rc3,2013-08-30 06:46:00,
2013-08-30 00:51:00,72.2,49.1,30.20,ENE,77,0.0,0.0,44,0.00,,,0.00,vanprod-2.5-rc3,2013-08-30 06:51:00,
2013-08-30 00:56:00,72.1,49.6,30.20,ENE,75,0.0,0.0,45,0.00,,,0.00,vanprod-2.5-rc3,2013-08-30 06:56:00,
2013-08-30 01:01:00,71.9,49.4,30.22,East,86,0.0,0.0,45,0.00,,,0.00,vanprod-2.5-rc3,2013-08-30 07:01:00,
2013-08-30 01:06:00,71.7,48.6,30.22,East,86,0.0,0.0,44,0.00,,,0.00,vanprod-2.5-rc3,2013-08-30 07:06:00,
2013-08-30 01:11:00,71.4,48.4,30.21,East,85,0.0,0.0,44,0.00,,,0.00,vanprod-2.5-rc3,2013-08-30 07:11:00,
2013-08-30 01:16:00,71.1,48.7,30.20,East,86,0.0,0.0,45,0.00,,,0.00,vanprod-2.5-rc3,2013-08-30 07:16:00,
2013-08-30 01:21:00,70.8,48.4,30.21,East,87,0.0,0.0,45,0.00,,,0.00,vanprod-2.5-rc3,2013-08-30 07:21:00,
2013-08-30 01:26:00,70.4,48.7,30.20,ENE,74,0.0,0.0,46,0.00,,,0.00,vanprod-2.5-rc3,2013-08-30 07:26:00,
2013-08-30 01:31:00,70.1,48.4,30.21,ENE,74,0.0,0.0,46,0.00,,,0.00,vanprod-2.5-rc3,2013-08-30 07:31:00,
2013-08-30 01:36:00,69.9,48.8,30.20,ENE,73,0.0,0.0,47,0.00,,,0.00,vanprod-2.5-rc3,2013-08-30 07:36:00,
2013-08-30 01:41:00,69.8,48.7,30.20,ENE,76,0.0,0.0,47,0.00,,,0.00,vanprod-2.5-rc3,2013-08-30 07:41:00,
2013-08-30 01:46:00,69.7,48.6,30.21,ENE,77,0.0,0.0,47,0.00,,,0.00,vanprod-2.5-rc3,2013-08-30 07:46:00,
2013-08-30 01:51:00,69.6,49.1,30.20,ENE,77,0.0,0.0,48,0.00,,,0.00,vanprod-2.5-rc3,2013-08-30 07:51:00,
2013-08-30 01:56:00,69.6,49.1,30.20,ENE,78,0.0,0.0,48,0.00,,,0.00,vanprod-2.5-rc3,2013-08-30 07:56:00,
2013-08-30 02:01:00,69.5,48.4,30.21,East,84,0.0,0.0,47,0.00,,,0.00,vanprod-2.5-rc3,2013-08-30 08:01:00,
2013-08-30 02:06:00,69.6,48.5,30.22,East,96,0.0,0.0,47,0.00,,,0.00,vanprod-2.5-rc3,2013-08-30 08:06:00,
2013-08-30 02:11:00,69.6,48.5,30.22,East,97,0.0,0.0,47,0.00,,,0.00,vanprod-2.5-rc3,2013-08-30 08:11:00,
2013-08-30 02:16:00,69.7,48.6,30.22,ESE,104,2.0,3.0,47,0.00,,,0.00,vanprod-2.5-rc3,2013-08-30 08:16:00,
2013-08-30 02:21:00,69.7,48.6,30.22,ESE,106,2.0,2.0,47,0.00,,,0.00,vanprod-2.5-rc3,2013-08-30 08:21:00,
2013-08-30 02:26:00,69.8,48.7,30.22,ESE,112,0.0,0.0,47,0.00,,,0.00,vanprod-2.5-rc3,2013-08-30 08:26:00,
2013-08-30 02:31:00,69.8,48.7,30.21,ESE,120,3.0,4.0,47,0.00,,,0.00,vanprod-2.5-rc3,2013-08-30 08:31:00,
2013-08-30 02:36:00,70.0,48.9,30.21,SE,125,0.0,0.0,47,0.00,,,0.00,vanprod-2.5-rc3,2013-08-30 08:36:00,
2013-08-30 02:41:00,70.2,49.0,30.21,ESE,109,0.0,0.0,47,0.00,,,0.00,vanprod-2.5-rc3,2013-08-30 08:41:00,
2013-08-30 02:46:00,70.4,49.2,30.21,ESE,114,2.0,0.0,47,0.00,,,0.00,vanprod-2.5-rc3,2013-08-30 08:46:00,
2013-08-30 02:51:00,70.5,49.3,30.20,ESE,122,3.0,5.0,47,0.00,,,0.00,vanprod-2.5-rc3,2013-08-30 08:51:00,
2013-08-30 02:56:00,70.7,48.9,30.20,SE,133,0.0,0.0,46,0.00,,,0.00,vanprod-2.5-rc3,2013-08-30 08:56:00,
2013-08-30 03:01:00,70.8,49.0,30.22,SE,131,0.0,0.0,46,0.00,,,0.00,vanprod-2.5-rc3,2013-08-30 09:01:00,
2013-08-30 03:06:00,70.8,49.0,30.21,ESE,114,0.0,0.0,46,0.00,,,0.00,vanprod-2.5-rc3,2013-08-30 09:06:00,
2013-08-30 03:11:00,70.7,48.9,30.21,ESE,103,0.0,0.0,46,0.00,,,0.00,vanprod-2.5-rc3,2013-08-30 09:11:00,
2013-08-30 03:16:00,70.5,48.2,30.19,East,101,0.0,0.0,45,0.00,,,0.00,vanprod-2.5-rc3,2013-08-30 09:16:00,
2013-08-30 03:21:00,70.0,48.3,30.20,ESE,107,0.0,0.0,46,0.00,,,0.00,vanprod-2.5-rc3,2013-08-30 09:21:00,
2013-08-30 03:26:00,69.7,48.0,30.20,ESE,109,0.0,0.0,46,0.00,,,0.00,vanprod-2.5-rc3,2013-08-30 09:26:00,
2013-08-30 03:31:00,69.4,47.7,30.20,ESE,106,0.0,0.0,46,0.00,,,0.00,vanprod-2.5-rc3,2013-08-30 09:31:00,
2013-08-30 03:36:00,69.2,47.6,30.20,ESE,112,0.0,0.0,46,0.00,,,0.00,vanprod-2.5-rc3,2013-08-30 09:36:00,
2013-08-30 03:41:00,69.0,47.4,30.20,East,99,0.0,0.0,46,0.00,,,0.00,vanprod-2.5-rc3,2013-08-30 09:41:00,
2013-08-30 03:46:00,68.6,47.0,30.20,East,97,0.0,0.0,46,0.00,,,0.00,vanprod-2.5-rc3,2013-08-30 09:46:00,
2013-08-30 03:51:00,68.1,47.1,30.18,East,94,0.0,0.0,47,0.00,,,0.00,vanprod-2.5-rc3,2013-08-30 09:51:00,
2013-08-30 03:56:00,67.6,47.2,30.19,East,92,0.0,0.0,48,0.00,,,0.00,vanprod-2.5-rc3,2013-08-30 09:56:00,
2013-08-30 04:01:00,67.3,47.5,30.19,ESE,110,0.0,0.0,49,0.00,,,0.00,vanprod-2.5-rc3,2013-08-30 10:01:00,
2013-08-30 04:06:00,67.2,47.4,30.18,ESE,119,0.0,0.0,49,0.00,,,0.00,vanprod-2.5-rc3,2013-08-30 10:06:00,
2013-08-30 04:11:00,67.0,46.7,30.21,East,85,0.0,0.0,48,0.00,,,0.00,vanprod-2.5-rc3,2013-08-30 10:11:00,
2013-08-30 04:16:00,66.7,46.4,30.21,ENE,76,0.0,0.0,48,0.00,,,0.00,vanprod-2.5-rc3,2013-08-30 10:16:00,
2013-08-30 04:21:00,66.6,46.9,30.19,ESE,109,0.0,1.0,49,0.00,,,0.00,vanprod-2.5-rc3,2013-08-30 10:21:00,
2013-08-30 04:26:00,66.9,47.1,30.18,SE,128,2.0,0.0,49,0.00,,,0.00,vanprod-2.5-rc3,2013-08-30 10:26:00,
2013-08-30 04:31:00,67.5,48.2,30.21,ESE,109,2.0,0.0,50,0.00,,,0.00,vanprod-2.5-rc3,2013-08-30 10:31:00,
2013-08-30 04:36:00,68.1,48.2,30.21,East,101,3.0,0.0,49,0.00,,,0.00,vanprod-2.5-rc3,2013-08-30 10:36:00,
2013-08-30 04:41:00,68.4,48.5,30.20,East,100,2.0,0.0,49,0.00,,,0.00,vanprod-2.5-rc3,2013-08-30 10:41:00,
2013-08-30 04:46:00,68.5,48.6,30.19,East,93,2.0,4.0,49,0.00,,,0.00,vanprod-2.5-rc3,2013-08-30 10:46:00,
2013-08-30 04:51:00,68.6,48.7,30.19,East,81,1.0,0.0,49,0.00,,,0.00,vanprod-2.5-rc3,2013-08-30 10:51:00,
2013-08-30 04:56:00,68.4,48.5,30.20,East,85,3.0,5.0,49,0.00,,,0.00,vanprod-2.5-rc3,2013-08-30 10:56:00,
2013-08-30 05:01:00,68.2,48.9,30.19,ENE,68,0.0,0.0,50,0.00,,,0.00,vanprod-2.5-rc3,2013-08-30 11:01:00,
2013-08-30 05:06:00,67.8,49.0,30.19,ENE,59,0.0,0.0,51,0.00,,,0.00,vanprod-2.5-rc3,2013-08-30 11:06:00,
2013-08-30 05:11:00,67.3,48.6,30.19,ENE,61,0.0,3.0,51,0.00,,,0.00,vanprod-2.5-rc3,2013-08-30 11:11:00,
2013-08-30 05:16:00,66.9,48.7,30.19,ENE,70,3.0,0.0,52,0.00,,,0.00,vanprod-2.5-rc3,2013-08-30 11:16:00,
2013-08-30 05:21:00,66.7,48.5,30.19,ENE,73,0.0,0.0,52,0.00,,,0.00,vanprod-2.5-rc3,2013-08-30 11:21:00,
2013-08-30 05:26:00,66.6,49.0,30.19,ENE,70,0.0,0.0,53,0.00,,,0.00,vanprod-2.5-rc3,2013-08-30 11:26:00,
2013-08-30 05:31:00,66.6,49.0,30.19,ENE,71,4.0,4.0,53,0.00,,,0.00,vanprod-2.5-rc3,2013-08-30 11:31:00,
2013-08-30 05:36:00,66.6,49.0,30.19,ENE,68,5.0,6.0,53,0.00,,,0.00,vanprod-2.5-rc3,2013-08-30 11:36:00,
2013-08-30 05:41:00,66.5,48.9,30.19,ENE,66,2.0,0.0,53,0.00,,,0.00,vanprod-2.5-rc3,2013-08-30 11:41:00,
2013-08-30 05:46:00,66.3,48.7,30.20,ENE,67,5.0,5.0,53,0.00,,,0.00,vanprod-2.5-rc3,2013-08-30 11:46:00,
2013-08-30 05:51:00,66.2,48.6,30.20,ENE,75,4.0,6.0,53,0.00,,,0.00,vanprod-2.5-rc3,2013-08-30 11:51:00,
2013-08-30 05:56:00,66.1,48.5,30.20,ENE,75,0.0,0.0,53,0.00,,,0.00,vanprod-2.5-rc3,2013-08-30 11:56:00,
2013-08-30 06:01:00,66.0,48.4,30.20,ENE,64,0.0,0.0,53,0.00,,,0.00,vanprod-2.5-rc3,2013-08-30 12:01:00,
2013-08-30 06:06:00,65.8,48.2,30.20,ENE,67,0.0,0.0,53,0.00,,,0.00,vanprod-2.5-rc3,2013-08-30 12:06:00,
2013-08-30 06:11:00,65.7,48.1,30.20,ENE,66,4.0,4.0,53,0.00,,,0.00,vanprod-2.5-rc3,2013-08-30 12:11:00,
2013-08-30 06:16:00,65.5,48.4,30.20,ENE,64,3.0,5.0,54,0.00,,,0.00,vanprod-2.5-rc3,2013-08-30 12:16:00,
2013-08-30 06:21:00,65.4,48.3,30.20,ENE,66,5.0,5.0,54,0.00,,,0.00,vanprod-2.5-rc3,2013-08-30 12:21:00,
2013-08-30 06:26:00,65.3,48.2,30.21,ENE,61,4.0,4.0,54,0.00,,,0.00,vanprod-2.5-rc3,2013-08-30 12:26:00,
2013-08-30 06:31:00,65.2,48.2,30.21,ENE,71,0.0,0.0,54,0.00,,,0.00,vanprod-2.5-rc3,2013-08-30 12:31:00,
2013-08-30 06:36:00,65.1,48.1,30.21,ENE,70,0.0,0.0,54,0.00,,,0.00,vanprod-2.5-rc3,2013-08-30 12:36:00,
2013-08-30 06:41:00,65.0,48.5,30.21,ENE,71,0.0,0.0,55,0.00,,,0.00,vanprod-2.5-rc3,2013-08-30 12:41:00,
2013-08-30 06:46:00,65.0,48.5,30.21,ENE,62,0.0,0.0,55,0.00,,,0.00,vanprod-2.5-rc3,2013-08-30 12:46:00,
2013-08-30 06:51:00,65.1,48.6,30.21,East,80,0.0,0.0,55,0.00,,,0.00,vanprod-2.5-rc3,2013-08-30 12:51:00,
2013-08-30 06:56:00,65.2,48.6,30.21,ENE,75,0.0,0.0,55,0.00,,,0.00,vanprod-2.5-rc3,2013-08-30 12:56:00,
2013-08-30 07:01:00,65.2,48.6,30.21,East,79,1.0,5.0,55,0.00,,,0.00,vanprod-2.5-rc3,2013-08-30 13:01:00,
2013-08-30 07:06:00,65.2,48.2,30.21,East,98,0.0,0.0,54,0.00,,,0.00,vanprod-2.5-rc3,2013-08-30 13:06:00,
2013-08-30 07:11:00,65.4,48.3,30.21,ENE,74,0.0,0.0,54,0.00,,,0.00,vanprod-2.5-rc3,2013-08-30 13:11:00,
2013-08-30 07:16:00,65.8,49.2,30.21,East,80,5.0,7.0,55,0.00,,,0.00,vanprod-2.5-rc3,2013-08-30 13:16:00,
2013-08-30 07:21:00,66.4,49.3,30.21,East,89,4.0,0.0,54,0.00,,,0.00,vanprod-2.5-rc3,2013-08-30 13:21:00,
2013-08-30 07:26:00,66.8,49.6,30.22,ENE,73,6.0,10.0,54,0.00,,,0.00,vanprod-2.5-rc3,2013-08-30 13:26:00,
2013-08-30 07:31:00,67.0,49.3,30.23,ENE,63,3.0,0.0,53,0.00,,,0.00,vanprod-2.5-rc3,2013-08-30 13:31:00,
2013-08-30 07:36:00,67.0,49.8,30.23,ENE,67,0.0,0.0,54,0.00,,,0.00,vanprod-2.5-rc3,2013-08-30 13:36:00,
2013-08-30 07:41:00,66.9,49.7,30.23,ENE,61,4.0,6.0,54,0.00,,,0.00,vanprod-2.5-rc3,2013-08-30 13:41:00,
2013-08-30 07:46:00,66.9,49.7,30.23,ENE,63,3.0,0.0,54,0.00,,,0.00,vanprod-2.5-rc3,2013-08-30 13:46:00,
2013-08-30 07:51:00,66.8,50.1,30.23,ENE,68,0.0,0.0,55,0.00,,,0.00,vanprod-2.5-rc3,2013-08-30 13:51:00,
2013-08-30 07:56:00,66.8,50.1,30.23,East,79,0.0,0.0,55,0.00,,,0.00,vanprod-2.5-rc3,2013-08-30 13:56:00,
2013-08-30 08:01:00,66.9,50.2,30.23,East,92,0.0,0.0,55,0.00,,,0.00,vanprod-2.5-rc3,2013-08-30 14:01:00,
2013-08-30 08:06:00,67.1,50.4,30.23,East,84,0.0,0.0,55,0.00,,,0.00,vanprod-2.5-rc3,2013-08-30 14:06:00,
2013-08-30 08:11:00,67.3,50.1,30.23,East,81,0.0,0.0,54,0.00,,,0.00,vanprod-2.5-rc3,2013-08-30 14:11:00,
2013-08-30 08:16:00,67.6,49.9,30.23,East,91,4.0,4.0,53,0.00,,,0.00,vanprod-2.5-rc3,2013-08-30 14:16:00,
2013-08-30 08:21:00,68.0,50.3,30.23,ENE,78,7.0,7.0,53,0.00,,,0.00,vanprod-2.5-rc3,2013-08-30 14:21:00,
2013-08-30 08:26:00,68.2,50.4,30.23,ENE,76,5.0,6.0,53,0.00,,,0.00,vanprod-2.5-rc3,2013-08-30 14:26:00,
2013-08-30 08:31:00,68.3,50.5,30.23,ENE,70,6.0,6.0,53,0.00,,,0.00,vanprod-2.5-rc3,2013-08-30 14:31:00,
2013-08-30 08:36:00,68.3,50.5,30.23,ENE,69,4.0,4.0,53,0.00,,,0.00,vanprod-2.5-rc3,2013-08-30 14:36:00,
2013-08-30 08:41:00,68.3,50.5,30.23,ENE,68,0.0,0.0,53,0.00,,,0.00,vanprod-2.5-rc3,2013-08-30 14:41:00,
2013-08-30 08:46:00,68.5,50.7,30.23,ENE,75,0.0,0.0,53,0.00,,,0.00,vanprod-2.5-rc3,2013-08-30 14:46:00,
2013-08-30 08:51:00,68.7,50.9,30.23,ENE,77,0.0,0.0,53,0.00,,,0.00,vanprod-2.5-rc3,2013-08-30 14:51:00,
2013-08-30 08:56:00,69.1,50.8,30.23,ENE,72,0.0,0.0,52,0.00,,,0.00,vanprod-2.5-rc3,2013-08-30 14:56:00,
2013-08-30 09:01:00,69.6,50.7,30.24,ENE,60,0.0,0.0,51,0.00,,,0.00,vanprod-2.5-rc3,2013-08-30 15:01:00,
2013-08-30 09:06:00,69.9,51.0,30.24,ENE,66,0.0,0.0,51,0.00,,,0.00,vanprod-2.5-rc3,2013-08-30 15:06:00,
2013-08-30 09:11:00,70.2,51.2,30.24,ENE,60,0.0,0.0,51,0.00,,,0.00,vanprod-2.5-rc3,2013-08-30 15:11:00,
2013-08-30 09:16:00,70.5,51.0,30.23,ENE,58,3.0,3.0,50,0.00,,,0.00,vanprod-2.5-rc3,2013-08-30 15:16:00,
2013-08-30 09:21:00,70.8,51.3,30.23,ENE,66,0.0,0.0,50,0.00,,,0.00,vanprod-2.5-rc3,2013-08-30 15:21:00,
2013-08-30 09:26:00,71.1,51.0,30.23,ENE,60,4.0,5.0,49,0.00,,,0.00,vanprod-2.5-rc3,2013-08-30 15:26:00,
2013-08-30 09:31:00,71.3,51.2,30.23,ENE,64,0.0,0.0,49,0.00,,,0.00,vanprod-2.5-rc3,2013-08-30 15:31:00,
2013-08-30 09:36:00,71.6,51.4,30.23,ENE,60,2.0,4.0,49,0.00,,,0.00,vanprod-2.5-rc3,2013-08-30 15:36:00,
2013-08-30 09:41:00,71.8,51.1,30.23,ENE,76,5.0,5.0,48,0.00,,,0.00,vanprod-2.5-rc3,2013-08-30 15:41:00,
2013-08-30 09:46:00,72.2,50.9,30.23,East,95,5.0,5.0,47,0.00,,,0.00,vanprod-2.5-rc3,2013-08-30 15:46:00,
2013-08-30 09:51:00,72.7,51.3,30.24,East,100,3.0,4.0,47,0.00,,,0.00,vanprod-2.5-rc3,2013-08-30 15:51:00,
2013-08-30 09:56:00,73.2,51.2,30.24,East,99,5.0,6.0,46,0.00,,,0.00,vanprod-2.5-rc3,2013-08-30 15:56:00,
2013-08-30 10:01:00,73.6,51.0,30.23,ESE,108,1.0,4.0,45,0.00,,,0.00,vanprod-2.5-rc3,2013-08-30 16:01:00,
2013-08-30 10:06:00,73.9,50.6,30.23,ENE,70,6.0,11.0,44,0.00,,,0.00,vanprod-2.5-rc3,2013-08-30 16:06:00,
2013-08-30 10:11:00,74.1,50.8,30.23,ENE,67,7.0,7.0,44,0.00,,,0.00,vanprod-2.5-rc3,2013-08-30 16:11:00,
2013-08-30 10:16:00,74.2,50.9,30.23,ENE,72,5.0,7.0,44,0.00,,,0.00,vanprod-2.5-rc3,2013-08-30 16:16:00,
2013-08-30 10:21:00,74.5,51.2,30.23,ENE,70,5.0,9.0,44,0.00,,,0.00,vanprod-2.5-rc3,2013-08-30 16:21:00,
2013-08-30 10:26:00,74.7,50.7,30.23,ENE,74,8.0,8.0,43,0.00,,,0.00,vanprod-2.5-rc3,2013-08-30 16:26:00,
2013-08-30 10:31:00,74.9,50.9,30.23,ENE,65,5.0,5.0,43,0.00,,,0.00,vanprod-2.5-rc3,2013-08-30 16:31:00,
2013-08-30 10:36:00,75.1,51.1,30.23,ENE,68,7.0,7.0,43,0.00,,,0.00,vanprod-2.5-rc3,2013-08-30 16:36:00,
2013-08-30 10:41:00,75.3,50.6,30.23,ENE,68,6.0,10.0,42,0.00,,,0.00,vanprod-2.5-rc3,2013-08-30 16:41:00,
2013-08-30 10:46:00,75.6,51.6,30.24,ENE,60,6.0,6.0,43,0.00,,,0.00,vanprod-2.5-rc3,2013-08-30 16:46:00,
2013-08-30 10:51:00,76.2,51.5,30.24,NE,53,3.0,0.0,42,0.00,,,0.00,vanprod-2.5-rc3,2013-08-30 16:51:00,
2013-08-30 10:56:00,76.7,51.3,30.23,ENE,71,6.0,6.0,41,0.00,,,0.00,vanprod-2.5-rc3,2013-08-30 16:56:00,
2013-08-30 11:01:00,76.7,51.3,30.22,NE,42,4.0,9.0,41,0.00,,,0.00,vanprod-2.5-rc3,2013-08-30 17:01:00,
2013-08-30 11:06:00,76.8,50.7,30.22,ENE,65,7.0,7.0,40,0.00,,,0.00,vanprod-2.5-rc3,2013-08-30 17:06:00,
2013-08-30 11:11:00,76.7,50.6,30.21,ENE,64,9.0,9.0,40,0.00,,,0.00,vanprod-2.5-rc3,2013-08-30 17:11:00,
2013-08-30 11:16:00,76.8,51.3,30.21,ENE,62,7.0,7.0,41,0.00,,,0.00,vanprod-2.5-rc3,2013-08-30 17:16:00,
2013-08-30 11:21:00,77.7,51.5,30.21,NE,45,7.0,7.0,40,0.00,,,0.00,vanprod-2.5-rc3,2013-08-30 17:21:00,
2013-08-30 11:26:00,78.7,51.7,30.22,ENE,61,7.0,7.0,39,0.00,,,0.00,vanprod-2.5-rc3,2013-08-30 17:26:00,
2013-08-30 11:31:00,79.5,51.7,30.22,NE,55,4.0,4.0,38,0.00,,,0.00,vanprod-2.5-rc3,2013-08-30 17:31:00,
2013-08-30 11:36:00,80.3,52.4,30.22,ENE,66,3.0,9.0,38,0.00,,,0.00,vanprod-2.5-rc3,2013-08-30 17:36:00,
2013-08-30 11:41:00,81.5,52.0,30.21,ENE,69,4.0,4.0,36,0.00,,,0.00,vanprod-2.5-rc3,2013-08-30 17:41:00,
2013-08-30 11:46:00,82.4,51.2,30.20,ENE,59,5.0,10.0,34,0.00,,,0.00,vanprod-2.5-rc3,2013-08-30 17:46:00,
2013-08-30 11:51:00,82.8,51.6,30.21,NE,40,6.0,6.0,34,0.00,,,0.00,vanprod-2.5-rc3,2013-08-30 17:51:00,
2013-08-30 11:56:00,82.9,50.9,30.21,ENE,61,7.0,11.0,33,0.00,,,0.00,vanprod-2.5-rc3,2013-08-30 17:56:00,
2013-08-30 12:01:00,83.0,51.0,30.20,NE,52,10.0,13.0,33,0.00,,,0.00,vanprod-2.5-rc3,2013-08-30 18:01:00,
2013-08-30 12:06:00,83.1,51.9,30.19,NE,51,6.0,10.0,34,0.00,,,0.00,vanprod-2.5-rc3,2013-08-30 18:06:00,
2013-08-30 12:11:00,83.2,52.7,30.18,ENE,62,6.0,8.0,35,0.00,,,0.00,vanprod-2.5-rc3,2013-08-30 18:11:00,
2013-08-30 12:16:00,83.3,52.8,30.18,NE,40,7.0,9.0,35,0.00,,,0.00,vanprod-2.5-rc3,2013-08-30 18:16:00,
2013-08-30 12:21:00,83.2,51.1,30.19,ENE,60,6.0,6.0,33,0.00,,,0.00,vanprod-2.5-rc3,2013-08-30 18:21:00,
2013-08-30 12:26:00,83.9,50.9,30.18,ENE,63,6.0,9.0,32,0.00,,,0.00,vanprod-2.5-rc3,2013-08-30 18:26:00,
2013-08-30 12:31:00,84.9,50.9,30.19,NE,51,3.0,5.0,31,0.00,,,0.00,vanprod-2.5-rc3,2013-08-30 18:31:00,
2013-08-30 12:36:00,85.4,51.4,30.17,ENE,63,5.0,5.0,31,0.00,,,0.00,vanprod-2.5-rc3,2013-08-30 18:36:00,
2013-08-30 12:41:00,85.6,50.6,30.18,NE,50,2.0,2.0,30,0.00,,,0.00,vanprod-2.5-rc3,2013-08-30 18:41:00,
2013-08-30 12:46:00,85.3,50.4,30.17,ENE,60,5.0,7.0,30,0.00,,,0.00,vanprod-2.5-rc3,2013-08-30 18:46:00,
2013-08-30 12:51:00,84.9,50.9,30.17,ENE,72,3.0,6.0,31,0.00,,,0.00,vanprod-2.5-rc3,2013-08-30 18:51:00,
2013-08-30 12:56:00,84.7,49.9,30.16,ENE,63,5.0,5.0,30,0.00,,,0.00,vanprod-2.5-rc3,2013-08-30 18:56:00,
2013-08-30 13:01:00,84.6,49.8,30.17,NE,56,3.0,3.0,30,0.00,,,0.00,vanprod-2.5-rc3,2013-08-30 19:01:00,
2013-08-30 13:06:00,84.2,49.4,30.17,ENE,59,0.0,3.0,30,0.00,,,0.00,vanprod-2.5-rc3,2013-08-30 19:06:00,
2013-08-30 13:11:00,84.2,50.3,30.16,ENE,67,4.0,4.0,31,0.00,,,0.00,vanprod-2.5-rc3,2013-08-30 19:11:00,
2013-08-30 13:16:00,84.3,50.4,30.16,ENE,74,4.0,4.0,31,0.00,,,0.00,vanprod-2.5-rc3,2013-08-30 19:16:00,
2013-08-30 13:21:00,84.4,50.5,30.16,ENE,75,3.0,3.0,31,0.00,,,0.00,vanprod-2.5-rc3,2013-08-30 19:21:00,
2013-08-30 13:26:00,84.8,50.8,30.16,ENE,71,1.0,5.0,31,0.00,,,0.00,vanprod-2.5-rc3,2013-08-30 19:26:00,
2013-08-30 13:31:00,85.1,50.2,30.16,ESE,105,2.0,0.0,30,0.00,,,0.00,vanprod-2.5-rc3,2013-08-30 19:31:00,
2013-08-30 13:36:00,85.2,50.3,30.15,East,97,0.0,0.0,30,0.00,,,0.00,vanprod-2.5-rc3,2013-08-30 19:36:00,
2013-08-30 13:41:00,85.7,51.6,30.16,East,84,0.0,0.0,31,0.00,,,0.00,vanprod-2.5-rc3,2013-08-30 19:41:00,
2013-08-30 13:46:00,87.0,51.9,30.15,ENE,77,2.0,4.0,30,0.00,,,0.00,vanprod-2.5-rc3,2013-08-30 19:46:00,
2013-08-30 13:51:00,88.4,51.2,30.15,ENE,61,1.0,0.0,28,0.00,,,0.00,vanprod-2.5-rc3,2013-08-30 19:51:00,
2013-08-30 13:56:00,89.6,51.2,30.13,NE,39,1.0,0.0,27,0.00,,,0.00,vanprod-2.5-rc3,2013-08-30 19:56:00,
2013-08-30 14:01:00,90.1,49.6,30.13,ESE,103,1.0,0.0,25,0.00,,,0.00,vanprod-2.5-rc3,2013-08-30 20:01:00,
2013-08-30 14:06:00,89.9,49.4,30.13,East,87,1.0,0.0,25,0.00,,,0.00,vanprod-2.5-rc3,2013-08-30 20:06:00,
2013-08-30 14:11:00,89.3,50.0,30.13,ESE,122,0.0,0.0,26,0.00,,,0.00,vanprod-2.5-rc3,2013-08-30 20:11:00,
2013-08-30 14:16:00,88.5,50.3,30.13,SSE,156,2.0,3.0,27,0.00,,,0.00,vanprod-2.5-rc3,2013-08-30 20:16:00,
2013-08-30 14:21:00,87.4,48.3,30.14,SSE,154,0.0,0.0,26,0.00,,,0.00,vanprod-2.5-rc3,2013-08-30 20:21:00,
2013-08-30 14:26:00,86.5,49.6,30.14,South,169,6.0,6.0,28,0.00,,,0.00,vanprod-2.5-rc3,2013-08-30 20:26:00,
2013-08-30 14:31:00,85.1,53.6,30.14,SSE,149,11.0,16.0,34,0.00,,,0.00,vanprod-2.5-rc3,2013-08-30 20:31:00,
2013-08-30 14:36:00,82.6,50.6,30.12,SSE,155,11.0,11.0,33,0.00,,,0.00,vanprod-2.5-rc3,2013-08-30 20:36:00,
2013-08-30 14:41:00,82.4,52.0,30.13,SE,143,12.0,12.0,35,0.00,,,0.00,vanprod-2.5-rc3,2013-08-30 20:41:00,
2013-08-30 14:46:00,82.8,50.0,30.12,SSE,153,15.0,15.0,32,0.00,,,0.00,vanprod-2.5-rc3,2013-08-30 20:46:00,
2013-08-30 14:51:00,83.1,50.2,30.11,SSE,155,7.0,7.0,32,0.00,,,0.00,vanprod-2.5-rc3,2013-08-30 20:51:00,
2013-08-30 14:56:00,85.5,50.6,30.10,SE,142,11.0,14.0,30,0.00,,,0.00,vanprod-2.5-rc3,2013-08-30 20:56:00,
2013-08-30 15:01:00,87.1,51.9,30.10,SE,140,5.0,6.0,30,0.00,,,0.00,vanprod-2.5-rc3,2013-08-30 21:01:00,
2013-08-30 15:06:00,88.5,50.3,30.11,SSE,156,11.0,11.0,27,0.00,,,0.00,vanprod-2.5-rc3,2013-08-30 21:06:00,
2013-08-30 15:11:00,89.0,50.7,30.09,SSE,148,10.0,10.0,27,0.00,,,0.00,vanprod-2.5-rc3,2013-08-30 21:11:00,
2013-08-30 15:16:00,87.5,50.4,30.11,SSE,150,11.0,11.0,28,0.00,,,0.00,vanprod-2.5-rc3,2013-08-30 21:16:00,
2013-08-30 15:21:00,86.8,49.8,30.10,SSE,158,5.0,5.0,28,0.00,,,0.00,vanprod-2.5-rc3,2013-08-30 21:21:00,
2013-08-30 15:26:00,87.7,49.6,30.10,SSE,148,10.0,10.0,27,0.00,,,0.00,vanprod-2.5-rc3,2013-08-30 21:26:00,
2013-08-30 15:31:00,88.4,51.2,30.10,SSE,157,4.0,4.0,28,0.00,,,0.00,vanprod-2.5-rc3,2013-08-30 21:31:00,
2013-08-30 15:36:00,89.5,51.1,30.09,ESE,121,6.0,6.0,27,0.00,,,0.00,vanprod-2.5-rc3,2013-08-30 21:36:00,
2013-08-30 15:41:00,90.7,51.1,30.11,SE,131,3.0,7.0,26,0.00,,,0.00,vanprod-2.5-rc3,2013-08-30 21:41:00,
2013-08-30 15:46:00,90.2,51.7,30.11,East,95,3.0,3.0,27,0.00,,,0.00,vanprod-2.5-rc3,2013-08-30 21:46:00,
2013-08-30 15:51:00,89.4,51.1,30.10,SE,137,10.0,10.0,27,0.00,,,0.00,vanprod-2.5-rc3,2013-08-30 21:51:00,
2013-08-30 15:56:00,88.0,50.8,30.11,SSE,147,12.0,12.0,28,0.00,,,0.00,vanprod-2.5-rc3,2013-08-30 21:56:00,
2013-08-30 16:01:00,86.4,50.4,30.12,SSE,151,7.0,14.0,29,0.00,,,0.00,vanprod-2.5-rc3,2013-08-30 22:01:00,
2013-08-30 16:06:00,84.9,50.9,30.12,SE,137,10.0,11.0,31,0.00,,,0.00,vanprod-2.5-rc3,2013-08-30 22:06:00,
2013-08-30 16:11:00,84.3,50.4,30.13,SSE,164,3.0,3.0,31,0.00,,,0.00,vanprod-2.5-rc3,2013-08-30 22:11:00,
2013-08-30 16:16:00,85.4,49.6,30.13,SE,131,12.0,12.0,29,0.00,,,0.00,vanprod-2.5-rc3,2013-08-30 22:16:00,
2013-08-30 16:21:00,87.3,51.2,30.12,SSE,167,9.0,13.0,29,0.00,,,0.00,vanprod-2.5-rc3,2013-08-30 22:21:00,
2013-08-30 16:26:00,87.1,51.0,30.12,SSE,164,2.0,0.0,29,0.00,,,0.00,vanprod-2.5-rc3,2013-08-30 22:26:00,
2013-08-30 16:31:00,86.4,49.5,30.12,SSE,148,5.0,5.0,28,0.00,,,0.00,vanprod-2.5-rc3,2013-08-30 22:31:00,
2013-08-30 16:36:00,85.8,49.0,30.12,ESE,118,6.0,6.0,28,0.00,,,0.00,vanprod-2.5-rc3,2013-08-30 22:36:00,
2013-08-30 16:41:00,85.6,48.8,30.12,SE,139,4.0,0.0,28,0.00,,,0.00,vanprod-2.5-rc3,2013-08-30 22:41:00,
2013-08-30 16:46:00,85.9,49.0,30.12,ESE,105,2.0,2.0,28,0.00,,,0.00,vanprod-2.5-rc3,2013-08-30 22:46:00,
2013-08-30 16:51:00,86.3,49.4,30.12,SE,128,0.0,0.0,28,0.00,,,0.00,vanprod-2.5-rc3,2013-08-30 22:51:00,
2013-08-30 16:56:00,86.3,50.3,30.12,SSE,160,3.0,0.0,29,0.00,,,0.00,vanprod-2.5-rc3,2013-08-30 22:56:00,
2013-08-30 17:01:00,85.5,51.4,30.13,SSE,148,10.0,10.0,31,0.00,,,0.00,vanprod-2.5-rc3,2013-08-30 23:01:00,
2013-08-30 17:06:00,83.9,51.7,30.11,SE,146,4.0,0.0,33,0.00,,,0.00,vanprod-2.5-rc3,2013-08-30 23:06:00,
2013-08-30 17:11:00,83.0,51.0,30.13,SSE,155,9.0,12.0,33,0.00,,,0.00,vanprod-2.5-rc3,2013-08-30 23:11:00,
2013-08-30 17:16:00,82.4,51.2,30.13,SSE,163,5.0,5.0,34,0.00,,,0.00,vanprod-2.5-rc3,2013-08-30 23:16:00,
2013-08-30 17:21:00,82.4,51.2,30.12,SSE,160,8.0,10.0,34,0.00,,,0.00,vanprod-2.5-rc3,2013-08-30 23:21:00,
2013-08-30 17:26:00,82.1,51.8,30.11,South,170,7.0,9.0,35,0.00,,,0.00,vanprod-2.5-rc3,2013-08-30 23:26:00,
2013-08-30 17:31:00,81.6,50.5,30.11,SSE,149,11.0,14.0,34,0.00,,,0.00,vanprod-2.5-rc3,2013-08-30 23:31:00,
2013-08-30 17:36:00,81.4,51.1,30.10,SSE,154,10.0,14.0,35,0.00,,,0.00,vanprod-2.5-rc3,2013-08-30 23:36:00,
2013-08-30 17:41:00,81.4,51.1,30.10,SSE,152,7.0,7.0,35,0.00,,,0.00,vanprod-2.5-rc3,2013-08-30 23:41:00,
2013-08-30 17:46:00,82.6,50.6,30.11,SSE,154,6.0,9.0,33,0.00,,,0.00,vanprod-2.5-rc3,2013-08-30 23:46:00,
2013-08-30 17:51:00,83.6,50.7,30.10,SSE,156,3.0,5.0,32,0.00,,,0.00,vanprod-2.5-rc3,2013-08-30 23:51:00,
2013-08-30 17:56:00,84.1,50.2,30.10,SSE,156,3.0,3.0,31,0.00,,,0.00,vanprod-2.5-rc3,2013-08-30 23:56:00,
2013-08-30 18:01:00,84.5,49.7,30.10,SSE,160,0.0,0.0,30,0.00,,,0.00,vanprod-2.5-rc3,2013-08-31 00:01:00,
2013-08-30 18:06:00,84.5,49.7,30.10,SSE,158,3.0,0.0,30,0.00,,,0.00,vanprod-2.5-rc3,2013-08-31 00:06:00,
2013-08-30 18:11:00,84.3,49.5,30.11,SE,140,0.0,0.0,30,0.00,,,0.00,vanprod-2.5-rc3,2013-08-31 00:11:00,
2013-08-30 18:16:00,83.8,50.8,30.11,NNW,348,0.0,0.0,32,0.00,,,0.00,vanprod-2.5-rc3,2013-08-31 00:16:00,
2013-08-30 18:21:00,83.8,50.8,30.11,NNW,348,0.0,0.0,32,0.00,,,0.00,vanprod-2.5-rc3,2013-08-31 00:21:00,
2013-08-30 18:26:00,83.9,50.9,30.10,NW,311,0.0,0.0,32,0.00,,,0.00,vanprod-2.5-rc3,2013-08-31 00:26:00,
2013-08-30 18:31:00,83.8,50.8,30.11,NW,311,0.0,0.0,32,0.00,,,0.00,vanprod-2.5-rc3,2013-08-31 00:31:00,
2013-08-30 18:36:00,84.2,50.3,30.10,South,171,0.0,0.0,31,0.00,,,0.00,vanprod-2.5-rc3,2013-08-31 00:36:00,
2013-08-30 18:41:00,84.8,50.0,30.09,South,169,0.0,0.0,30,0.00,,,0.00,vanprod-2.5-rc3,2013-08-31 00:41:00,
2013-08-30 18:46:00,84.8,50.8,30.09,SW,228,1.0,0.0,31,0.00,,,0.00,vanprod-2.5-rc3,2013-08-31 00:46:00,
2013-08-30 18:51:00,84.3,51.3,30.10,SW,229,0.0,0.0,32,0.00,,,0.00,vanprod-2.5-rc3,2013-08-31 00:51:00,
2013-08-30 18:56:00,83.9,50.9,30.10,SSW,205,0.0,0.0,32,0.00,,,0.00,vanprod-2.5-rc3,2013-08-31 00:56:00,
2013-08-30 19:01:00,83.9,50.9,30.09,SSW,205,0.0,0.0,32,0.00,,,0.00,vanprod-2.5-rc3,2013-08-31 01:01:00,
2013-08-30 19:06:00,83.2,51.1,30.09,NE,48,4.0,5.0,33,0.00,,,0.00,vanprod-2.5-rc3,2013-08-31 01:06:00,
2013-08-30 19:11:00,82.0,50.9,30.10,NE,42,3.0,0.0,34,0.00,,,0.00,vanprod-2.5-rc3,2013-08-31 01:11:00,
2013-08-30 19:16:00,81.4,50.4,30.10,NE,51,0.0,0.0,34,0.00,,,0.00,vanprod-2.5-rc3,2013-08-31 01:16:00,
2013-08-30 19:21:00,81.2,51.0,30.10,South,191,0.0,0.0,35,0.00,,,0.00,vanprod-2.5-rc3,2013-08-31 01:21:00,
2013-08-30 19:26:00,81.0,50.8,30.10,SSW,198,0.0,0.0,35,0.00,,,0.00,vanprod-2.5-rc3,2013-08-31 01:26:00,
2013-08-30 19:31:00,79.9,50.6,30.09,West,273,0.0,0.0,36,0.00,,,0.00,vanprod-2.5-rc3,2013-08-31 01:31:00,
2013-08-30 19:36:00,79.2,50.0,30.10,WSW,251,0.0,0.0,36,0.00,,,0.00,vanprod-2.5-rc3,2013-08-31 01:36:00,
2013-08-30 19:41:00,78.7,50.3,30.10,NW,313,0.0,0.0,37,0.00,,,0.00,vanprod-2.5-rc3,2013-08-31 01:41:00,
2013-08-30 19:46:00,78.6,50.9,30.10,SW,233,0.0,0.0,38,0.00,,,0.00,vanprod-2.5-rc3,2013-08-31 01:46:00,
2013-08-30 19:51:00,78.1,50.5,30.11,South,190,0.0,0.0,38,0.00,,,0.00,vanprod-2.5-rc3,2013-08-31 01:51:00,
2013-08-30 19:56:00,77.6,50.0,30.11,WNW,300,1.0,0.0,38,0.00,,,0.00,vanprod-2.5-rc3,2013-08-31 01:56:00,
2013-08-30 20:01:00,77.1,50.3,30.10,West,281,1.0,0.0,39,0.00,,,0.00,vanprod-2.5-rc3,2013-08-31 02:01:00,
2013-08-30 20:06:00,76.9,50.1,30.11,West,279,0.0,0.0,39,0.00,,,0.00,vanprod-2.5-rc3,2013-08-31 02:06:00,
2013-08-30 20:11:00,76.8,50.7,30.11,NNE,15,1.0,0.0,40,0.00,,,0.00,vanprod-2.5-rc3,2013-08-31 02:11:00,
2013-08-30 20:16:00,76.4,50.3,30.11,NE,42,0.0,0.0,40,0.00,,,0.00,vanprod-2.5-rc3,2013-08-31 02:16:00,
2013-08-30 20:21:00,76.1,50.1,30.11,NE,42,0.0,0.0,40,0.00,,,0.00,vanprod-2.5-rc3,2013-08-31 02:21:00,
2013-08-30 20:26:00,75.9,50.5,30.11,ESE,109,0.0,0.0,41,0.00,,,0.00,vanprod-2.5-rc3,2013-08-31 02:26:00,
2013-08-30 20:31:00,75.8,50.4,30.11,ESE,116,5.0,5.0,41,0.00,,,0.00,vanprod-2.5-rc3,2013-08-31 02:31:00,
2013-08-30 20:36:00,75.6,50.3,30.12,SE,125,4.0,4.0,41,0.00,,,0.00,vanprod-2.5-rc3,2013-08-31 02:36:00,
2013-08-30 20:41:00,75.3,50.0,30.13,East,99,0.0,0.0,41,0.00,,,0.00,vanprod-2.5-rc3,2013-08-31 02:41:00,
2013-08-30 20:46:00,75.0,49.7,30.14,SE,143,0.0,0.0,41,0.00,,,0.00,vanprod-2.5-rc3,2013-08-31 02:46:00,
2013-08-30 20:51:00,74.8,49.5,30.14,SE,146,0.0,0.0,41,0.00,,,0.00,vanprod-2.5-rc3,2013-08-31 02:51:00,
2013-08-30 20:56:00,74.2,49.0,30.14,NNE,19,0.0,0.0,41,0.00,,,0.00,vanprod-2.5-rc3,2013-08-31 02:56:00,
2013-08-30 21:01:00,73.6,49.1,30.15,East,79,3.0,3.0,42,0.00,,,0.00,vanprod-2.5-rc3,2013-08-31 03:01:00,
2013-08-30 21:06:00,73.4,48.9,30.14,East,97,0.0,0.0,42,0.00,,,0.00,vanprod-2.5-rc3,2013-08-31 03:06:00,
2013-08-30 21:11:00,73.2,49.4,30.15,ESE,109,1.0,2.0,43,0.00,,,0.00,vanprod-2.5-rc3,2013-08-31 03:11:00,
2013-08-30 21:16:00,73.1,49.3,30.15,ESE,105,0.0,0.0,43,0.00,,,0.00,vanprod-2.5-rc3,2013-08-31 03:16:00,
2013-08-30 21:21:00,73.0,49.2,30.15,ESE,106,0.0,0.0,43,0.00,,,0.00,vanprod-2.5-rc3,2013-08-31 03:21:00,
2013-08-30 21:26:00,73.0,49.8,30.15,ESE,106,0.0,0.0,44,0.00,,,0.00,vanprod-2.5-rc3,2013-08-31 03:26:00,
2013-08-30 21:31:00,72.9,49.7,30.15,ESE,110,0.0,0.0,44,0.00,,,0.00,vanprod-2.5-rc3,2013-08-31 03:31:00,
2013-08-30 21:36:00,72.8,49.6,30.15,ESE,114,4.0,4.0,44,0.00,,,0.00,vanprod-2.5-rc3,2013-08-31 03:36:00,
2013-08-30 21:41:00,72.9,49.7,30.15,SE,125,5.0,5.0,44,0.00,,,0.00,vanprod-2.5-rc3,2013-08-31 03:41:00,
2013-08-30 21:46:00,73.0,49.8,30.14,ESE,105,4.0,6.0,44,0.00,,,0.00,vanprod-2.5-rc3,2013-08-31 03:46:00,
2013-08-30 21:51:00,73.1,49.3,30.14,East,94,2.0,4.0,43,0.00,,,0.00,vanprod-2.5-rc3,2013-08-31 03:51:00,
2013-08-30 21:56:00,73.1,49.3,30.14,East,86,0.0,0.0,43,0.00,,,0.00,vanprod-2.5-rc3,2013-08-31 03:56:00,
2013-08-30 22:01:00,73.1,49.3,30.15,East,86,0.0,0.0,43,0.00,,,0.00,vanprod-2.5-rc3,2013-08-31 04:01:00,
2013-08-30 22:06:00,73.0,49.2,30.15,ESE,122,4.0,9.0,43,0.00,,,0.00,vanprod-2.5-rc3,2013-08-31 04:06:00,
2013-08-30 22:11:00,73.1,49.3,30.15,ESE,121,3.0,4.0,43,0.00,,,0.00,vanprod-2.5-rc3,2013-08-31 04:11:00,
2013-08-30 22:16:00,73.2,49.4,30.15,ESE,120,1.0,5.0,43,0.00,,,0.00,vanprod-2.5-rc3,2013-08-31 04:16:00,
2013-08-30 22:21:00,73.2,49.4,30.15,ESE,121,0.0,0.0,43,0.00,,,0.00,vanprod-2.5-rc3,2013-08-31 04:21:00,
2013-08-30 22:26:00,73.1,49.3,30.15,ESE,119,0.0,0.0,43,0.00,,,0.00,vanprod-2.5-rc3,2013-08-31 04:26:00,
2013-08-30 22:31:00,73.0,49.2,30.15,ESE,117,0.0,0.0,43,0.00,,,0.00,vanprod-2.5-rc3,2013-08-31 04:31:00,
2013-08-30 22:36:00,72.5,49.4,30.15,NE,52,0.0,0.0,44,0.00,,,0.00,vanprod-2.5-rc3,2013-08-31 04:36:00,
2013-08-30 22:41:00,72.1,49.0,30.16,NE,45,0.0,0.0,44,0.00,,,0.00,vanprod-2.5-rc3,2013-08-31 04:41:00,
2013-08-30 22:46:00,71.7,48.6,30.16,NE,45,0.0,0.0,44,0.00,,,0.00,vanprod-2.5-rc3,2013-08-31 04:46:00,
2013-08-30 22:51:00,71.3,48.9,30.16,NE,45,0.0,0.0,45,0.00,,,0.00,vanprod-2.5-rc3,2013-08-31 04:51:00,
2013-08-30 22:56:00,71.1,49.3,30.16,NE,45,0.0,0.0,46,0.00,,,0.00,vanprod-2.5-rc3,2013-08-31 04:56:00,
2013-08-30 23:01:00,71.1,49.3,30.16,NE,45,0.0,0.0,46,0.00,,,0.00,vanprod-2.5-rc3,2013-08-31 05:01:00,
2013-08-30 23:06:00,71.2,49.4,30.16,NW,323,0.0,0.0,46,0.00,,,0.00,vanprod-2.5-rc3,2013-08-31 05:06:00,
2013-08-30 23:11:00,71.3,48.9,30.16,North,351,0.0,0.0,45,0.00,,,0.00,vanprod-2.5-rc3,2013-08-31 05:11:00,
2013-08-30 23:16:00,71.1,49.3,30.16,NNE,28,0.0,0.0,46,0.00,,,0.00,vanprod-2.5-rc3,2013-08-31 05:16:00,
2013-08-30 23:21:00,71.0,49.2,30.16,East,79,0.0,0.0,46,0.00,,,0.00,vanprod-2.5-rc3,2013-08-31 05:21:00,
2013-08-30 23:26:00,70.8,49.0,30.16,NE,51,3.0,4.0,46,0.00,,,0.00,vanprod-2.5-rc3,2013-08-31 05:26:00,
2013-08-30 23:31:00,70.7,48.9,30.16,NE,48,3.0,3.0,46,0.00,,,0.00,vanprod-2.5-rc3,2013-08-31 05:31:00,
2013-08-30 23:36:00,70.7,48.9,30.16,NE,47,0.0,0.0,46,0.00,,,0.00,vanprod-2.5-rc3,2013-08-31 05:36:00,
2013-08-30 23:41:00,70.6,48.8,30.16,NE,55,3.0,3.0,46,0.00,,,0.00,vanprod-2.5-rc3,2013-08-31 05:41:00,
2013-08-30 23:46:00,70.3,49.1,30.17,ENE,57,2.0,4.0,47,0.00,,,0.00,vanprod-2.5-rc3,2013-08-31 05:46:00,
2013-08-30 23:51:00,70.1,50.1,30.17,NE,46,4.0,7.0,49,0.00,,,0.00,vanprod-2.5-rc3,2013-08-31 05:51:00,
2013-08-30 23:56:00,69.9,49.9,30.17,NE,51,6.0,11.0,49,0.00,,,0.00,vanprod-2.5-rc3,2013-08-31 05:56:00,